createdAt,value
2023-02-19T00:01:21.921Z,48.00
2023-02-19T00:03:51.494Z,39.47
2023-02-19T00:06:20.506Z,40.03
2023-02-19T00:08:48.456Z,42.30
2023-02-19T00:11:18.780Z,39.85
2023-02-19T00:13:49.037Z,43.92
2023-02-19T00:16:20.641Z,39.33
2023-02-19T00:18:49.418Z,39.17
2023-02-19T00:21:19.366Z,37.78
2023-02-19T00:23:49.686Z,40.05
2023-02-19T00:26:18.893Z,43.85
2023-02-19T00:28:47.393Z,37.85
2023-02-19T00:31:18.569Z,39.15
2023-02-19T00:33:48.409Z,35.85
2023-02-19T00:36:16.388Z,38.13
2023-02-19T00:38:45.394Z,40.30
2023-02-19T00:41:14.353Z,54.78
2023-02-19T00:43:43.924Z,45.55
2023-02-19T00:46:11.671Z,55.80
2023-02-19T00:48:41.269Z,119.55
2023-02-19T00:51:10.710Z,74.53
2023-02-19T00:53:40.178Z,76.53
2023-02-19T00:56:08.477Z,75.70
2023-02-19T00:58:36.395Z,64.35
2023-02-19T01:01:05.580Z,179.23
2023-02-19T01:03:33.690Z,96.25
2023-02-19T01:06:01.824Z,72.70
2023-02-19T01:08:32.258Z,68.05
2023-02-19T01:11:05.876Z,157.50
2023-02-19T01:13:34.404Z,154.70
2023-02-19T01:16:06.010Z,86.80
2023-02-19T01:18:34.740Z,73.68
2023-02-19T01:21:06.641Z,72.72
2023-02-19T01:23:39.189Z,58.03
2023-02-19T01:26:08.332Z,59.67
2023-02-19T01:28:36.044Z,53.88
2023-02-19T01:31:05.094Z,55.15
2023-02-19T01:33:35.028Z,51.58
2023-02-19T01:36:03.952Z,59.80
2023-02-19T01:38:31.922Z,57.78
2023-02-19T01:41:03.807Z,76.63
2023-02-19T01:43:33.357Z,65.97
2023-02-19T01:46:02.841Z,57.50
2023-02-19T01:48:34.269Z,66.00
2023-02-19T01:51:08.428Z,63.97
2023-02-19T01:53:39.943Z,58.28
2023-02-19T01:56:10.058Z,64.22
2023-02-19T01:58:38.609Z,60.47
2023-02-19T02:01:09.639Z,60.45
2023-02-19T02:03:40.624Z,58.47
2023-02-19T02:06:14.626Z,63.70
2023-02-19T02:08:42.534Z,66.63
2023-02-19T02:11:11.819Z,80.68
2023-02-19T02:13:40.874Z,76.28
2023-02-19T02:16:21.247Z,76.63
2023-02-19T02:19:00.388Z,89.40
2023-02-19T02:21:36.332Z,104.28
2023-02-19T02:24:18.306Z,86.47
2023-02-19T02:27:04.236Z,86.78
2023-02-19T02:30:10.134Z,85.63
2023-02-19T02:32:43.276Z,87.50
2023-02-19T02:35:13.795Z,78.82
2023-02-19T02:37:44.017Z,75.80
2023-02-19T02:40:12.702Z,78.00
2023-02-19T02:42:44.005Z,76.75
2023-02-19T02:45:27.758Z,61.90
2023-02-19T02:47:58.630Z,72.72
2023-02-19T02:50:31.111Z,76.90
2023-02-19T02:53:02.335Z,66.63
2023-02-19T02:55:34.697Z,76.20
2023-02-19T02:58:03.264Z,66.38
2023-02-19T03:00:35.817Z,132.45
2023-02-19T03:03:05.049Z,169.80
2023-02-19T03:05:33.464Z,162.32
2023-02-19T03:08:06.389Z,170.07
2023-02-19T03:10:40.847Z,141.35
2023-02-19T03:13:27.666Z,112.90
2023-02-19T03:16:02.596Z,102.55
2023-02-19T03:18:34.247Z,102.05
2023-02-19T03:21:04.242Z,100.45
2023-02-19T03:23:35.417Z,111.47
2023-02-19T03:26:04.373Z,112.07
2023-02-19T03:28:35.238Z,131.10
2023-02-19T03:31:11.532Z,140.50
2023-02-19T03:33:43.050Z,168.18
2023-02-19T03:36:13.803Z,164.85
2023-02-19T03:41:22.153Z,114.10
2023-02-19T03:44:01.315Z,190.45
2023-02-19T03:46:42.155Z,236.25
2023-02-19T03:49:18.036Z,204.63
2023-02-19T03:51:51.323Z,165.63
2023-02-19T03:54:23.498Z,165.93
2023-02-19T03:56:56.459Z,185.82
2023-02-19T03:59:30.997Z,146.88
2023-02-19T04:02:03.539Z,149.77
2023-02-19T04:04:36.526Z,136.23
2023-02-19T04:07:04.429Z,97.85
2023-02-19T04:09:37.568Z,253.55
2023-02-19T04:12:08.260Z,238.70
2023-02-19T04:14:41.190Z,222.52
2023-02-19T04:17:17.000Z,142.40
2023-02-19T04:19:48.301Z,182.98
2023-02-19T04:22:17.837Z,150.88
2023-02-19T04:24:49.377Z,123.07
2023-02-19T04:27:17.919Z,103.82
2023-02-19T04:29:46.532Z,123.13
2023-02-19T04:32:15.884Z,193.13
2023-02-19T04:34:43.446Z,167.57
2023-02-19T04:37:12.115Z,178.55
2023-02-19T04:39:39.837Z,93.90
2023-02-19T04:42:07.909Z,76.35
2023-02-19T04:44:35.730Z,102.40
2023-02-19T04:47:03.574Z,135.68
2023-02-19T04:49:32.660Z,106.78
2023-02-19T04:52:00.590Z,77.95
2023-02-19T04:54:28.614Z,79.50
2023-02-19T04:56:56.178Z,78.57
2023-02-19T04:59:24.894Z,67.95
2023-02-19T05:01:52.658Z,68.03
2023-02-19T05:04:20.461Z,245.02
2023-02-19T05:06:49.849Z,152.88
2023-02-19T05:09:17.673Z,422.75
2023-02-19T05:11:45.218Z,263.77
2023-02-19T05:14:12.841Z,69.68
2023-02-19T05:16:41.795Z,76.25
2023-02-19T05:19:11.346Z,61.47
2023-02-19T05:21:39.570Z,71.63
2023-02-19T05:24:09.002Z,82.38
2023-02-19T05:26:36.798Z,72.50
2023-02-19T05:29:04.566Z,97.50
2023-02-19T05:31:33.165Z,76.30
2023-02-19T05:34:00.916Z,62.47
2023-02-19T05:36:28.933Z,64.97
2023-02-19T05:38:57.679Z,72.50
2023-02-19T05:41:28.501Z,70.75
2023-02-19T05:43:56.812Z,89.57
2023-02-19T05:46:26.098Z,96.25
2023-02-19T05:48:53.961Z,58.72
2023-02-19T05:51:24.162Z,57.50
2023-02-19T05:53:52.659Z,94.57
2023-02-19T05:56:31.429Z,82.82
2023-02-19T05:59:00.820Z,61.40
2023-02-19T06:01:28.915Z,69.80
2023-02-19T06:03:57.879Z,55.72
2023-02-19T06:06:26.739Z,45.58
2023-02-19T06:08:54.680Z,49.33
2023-02-19T06:11:22.652Z,42.40
2023-02-19T06:13:52.946Z,50.05
2023-02-19T06:16:21.773Z,57.70
2023-02-19T06:18:49.637Z,65.82
2023-02-19T06:21:18.553Z,82.72
2023-02-19T06:23:46.398Z,36.72
2023-02-19T06:26:16.329Z,41.38
2023-02-19T06:28:44.748Z,50.28
2023-02-19T06:31:14.678Z,41.22
2023-02-19T06:33:42.751Z,44.83
2023-02-19T06:36:13.280Z,39.90
2023-02-19T06:38:41.066Z,39.22
2023-02-19T06:41:12.528Z,54.58
2023-02-19T06:43:42.394Z,77.75
2023-02-19T06:46:12.284Z,72.05
2023-02-19T06:48:44.752Z,44.75
2023-02-19T06:51:13.289Z,91.00
2023-02-19T06:53:41.794Z,119.32
2023-02-19T06:56:24.206Z,77.00
2023-02-19T06:58:52.560Z,58.75
2023-02-19T07:01:20.537Z,68.90
2023-02-19T07:03:50.046Z,75.82
2023-02-19T07:06:17.648Z,92.20
2023-02-19T07:08:46.688Z,47.78
2023-02-19T07:11:15.130Z,72.30
2023-02-19T07:13:42.988Z,40.33
2023-02-19T07:16:12.116Z,46.70
2023-02-19T07:18:40.886Z,30.92
2023-02-19T07:21:13.404Z,32.63
2023-02-19T07:23:43.779Z,28.95
2023-02-19T07:26:13.649Z,32.00
2023-02-19T07:28:41.534Z,28.45
2023-02-19T07:31:10.134Z,30.40
2023-02-19T07:33:38.543Z,30.75
2023-02-19T07:36:08.246Z,24.50
2023-02-19T07:38:37.594Z,26.50
2023-02-19T07:41:06.571Z,130.00
2023-02-19T07:43:36.429Z,40.88
2023-02-19T07:46:05.171Z,25.63
2023-02-19T07:48:34.095Z,38.88
2023-02-19T07:51:02.408Z,28.05
2023-02-19T07:53:30.693Z,30.48
2023-02-19T07:56:02.010Z,24.05
2023-02-19T07:58:30.148Z,24.45
2023-02-19T08:01:07.586Z,22.42
2023-02-19T08:03:36.194Z,23.63
2023-02-19T08:06:05.390Z,23.15
2023-02-19T08:08:33.806Z,21.00
2023-02-19T08:11:05.203Z,16.40
2023-02-19T08:13:33.200Z,23.05
2023-02-19T08:16:20.140Z,20.52
2023-02-19T08:21:20.392Z,18.33
2023-02-19T08:23:50.599Z,17.38
2023-02-19T08:26:20.749Z,19.33
2023-02-19T08:28:48.958Z,19.17
2023-02-19T08:31:16.958Z,16.85
2023-02-19T08:33:45.705Z,20.42
2023-02-19T08:36:13.700Z,17.55
2023-02-19T08:38:41.253Z,20.75
2023-02-19T08:41:11.859Z,16.13
2023-02-19T08:46:11.553Z,17.05
2023-02-19T08:48:40.037Z,19.88
2023-02-19T08:51:10.438Z,21.02
2023-02-19T08:53:40.635Z,21.70
2023-02-19T08:56:10.411Z,22.45
2023-02-19T08:58:38.698Z,20.83
2023-02-19T09:01:10.794Z,18.17
2023-02-19T09:03:38.509Z,20.75
2023-02-19T09:06:06.889Z,23.65
2023-02-19T09:08:36.826Z,34.70
2023-02-19T09:11:05.398Z,22.67
2023-02-19T09:13:33.283Z,30.80
2023-02-19T09:16:03.251Z,26.80
2023-02-19T09:18:32.687Z,21.08
2023-02-19T09:21:01.059Z,30.27
2023-02-19T09:23:28.776Z,22.08
2023-02-19T09:25:59.919Z,21.55
2023-02-19T09:28:28.230Z,24.77
2023-02-19T09:30:55.846Z,28.40
2023-02-19T09:33:23.593Z,21.48
2023-02-19T09:35:53.018Z,28.38
2023-02-19T09:38:20.786Z,25.25
2023-02-19T09:40:48.390Z,38.15
2023-02-19T09:43:20.927Z,33.67
2023-02-19T09:45:49.588Z,24.60
2023-02-19T09:48:17.393Z,22.92
2023-02-19T09:50:47.832Z,23.10
2023-02-19T09:53:21.863Z,22.55
2023-02-19T09:55:50.027Z,21.45
2023-02-19T09:58:24.278Z,19.85
2023-02-19T10:00:55.064Z,22.48
2023-02-19T10:03:27.362Z,24.42
2023-02-19T10:05:55.506Z,21.23
2023-02-19T10:08:24.588Z,23.05
2023-02-19T10:10:54.743Z,18.98
2023-02-19T10:13:28.204Z,23.95
2023-02-19T10:15:58.005Z,21.33
2023-02-19T10:18:28.373Z,19.42
2023-02-19T10:20:57.242Z,21.48
2023-02-19T10:23:26.506Z,18.27
2023-02-19T10:25:57.373Z,16.45
2023-02-19T10:28:27.950Z,17.33
2023-02-19T10:30:58.367Z,16.20
2023-02-19T10:33:26.678Z,17.35
2023-02-19T10:35:56.706Z,16.58
2023-02-19T10:38:30.051Z,15.75
2023-02-19T10:41:04.549Z,19.75
2023-02-19T10:43:36.726Z,16.83
2023-02-19T10:46:07.200Z,13.38
2023-02-19T10:48:38.429Z,16.02
2023-02-19T10:51:09.653Z,16.67
2023-02-19T10:56:14.866Z,16.38
2023-02-19T10:58:44.106Z,14.70
2023-02-19T11:01:17.614Z,16.35
2023-02-19T11:03:46.490Z,15.10
2023-02-19T11:06:17.702Z,15.27
2023-02-19T11:08:52.518Z,15.57
2023-02-19T11:11:26.186Z,16.48
2023-02-19T11:13:57.231Z,16.52
2023-02-19T11:16:38.654Z,16.58
2023-02-19T11:19:06.618Z,14.82
2023-02-19T11:21:34.266Z,15.13
2023-02-19T11:24:03.810Z,15.43
2023-02-19T11:26:33.874Z,17.23
2023-02-19T11:29:11.461Z,15.30
2023-02-19T11:31:39.709Z,14.10
2023-02-19T11:34:29.638Z,16.70
2023-02-19T11:37:18.754Z,17.67
2023-02-19T11:39:49.613Z,17.23
2023-02-19T11:42:45.784Z,17.63
2023-02-19T11:45:27.578Z,16.58
2023-02-19T11:48:24.691Z,14.60
2023-02-19T11:51:15.787Z,15.55
2023-02-19T11:53:49.793Z,15.48
2023-02-19T11:56:23.823Z,18.15
2023-02-19T11:59:02.145Z,15.50
2023-02-19T12:01:51.781Z,15.73
2023-02-19T12:04:55.630Z,14.15
2023-02-19T12:07:41.188Z,15.95
2023-02-19T12:10:20.471Z,13.85
2023-02-19T12:13:02.336Z,15.27
2023-02-19T12:15:39.845Z,14.77
2023-02-19T12:18:39.715Z,15.48
2023-02-19T12:21:22.325Z,11.13
2023-02-19T12:24:11.852Z,16.50
2023-02-19T12:26:47.501Z,16.02
2023-02-19T12:29:33.042Z,15.45
2023-02-19T12:32:26.179Z,13.60
2023-02-19T12:35:29.016Z,14.70
2023-02-19T12:38:07.906Z,14.18
2023-02-19T12:40:50.339Z,16.63
2023-02-19T12:45:55.511Z,43.25
2023-02-19T12:48:29.568Z,14.55
2023-02-19T12:51:02.894Z,17.95
2023-02-19T12:53:40.409Z,69.10
2023-02-19T12:56:14.952Z,71.10
2023-02-19T12:58:48.230Z,67.03
2023-02-19T13:01:24.331Z,45.17
2023-02-19T13:04:03.744Z,22.30
2023-02-19T13:06:37.726Z,55.00
2023-02-19T13:09:27.927Z,29.98
2023-02-19T13:12:02.093Z,23.85
2023-02-19T13:14:34.523Z,52.92
2023-02-19T13:17:13.536Z,17.45
2023-02-19T13:19:43.695Z,18.52
2023-02-19T13:22:22.683Z,20.20
2023-02-19T13:24:52.306Z,23.40
2023-02-19T13:27:37.357Z,15.52
2023-02-19T13:30:24.909Z,16.88
2023-02-19T13:33:04.492Z,16.00
2023-02-19T13:36:11.083Z,16.60
2023-02-19T13:38:41.396Z,17.27
2023-02-19T13:41:19.839Z,14.88
2023-02-19T13:43:56.091Z,18.65
2023-02-19T13:46:36.419Z,21.03
2023-02-19T13:49:42.405Z,23.52
2023-02-19T13:52:37.077Z,24.30
2023-02-19T13:55:42.438Z,17.83
2023-02-19T13:58:52.192Z,16.48
2023-02-19T14:01:40.737Z,22.13
2023-02-19T14:04:18.397Z,27.25
2023-02-19T14:07:45.644Z,19.65
2023-02-19T14:10:55.626Z,28.75
2023-02-19T14:14:05.765Z,99.07
2023-02-19T14:17:13.003Z,56.08
2023-02-19T14:19:50.901Z,48.00
2023-02-19T14:22:47.685Z,25.67
2023-02-19T14:25:29.115Z,16.25
2023-02-19T14:28:02.030Z,18.70
2023-02-19T14:30:31.897Z,17.10
2023-02-19T14:33:10.512Z,22.58
2023-02-19T14:35:45.456Z,22.90
2023-02-19T14:38:20.226Z,22.43
2023-02-19T14:40:51.518Z,31.45
2023-02-19T14:43:22.390Z,55.97
2023-02-19T14:45:53.841Z,50.75
2023-02-19T14:48:25.797Z,45.67
2023-02-19T14:51:02.254Z,49.30
2023-02-19T14:53:33.066Z,44.28
2023-02-19T14:56:02.024Z,48.17
2023-02-19T14:58:32.409Z,41.60
2023-02-19T15:01:01.460Z,31.85
2023-02-19T15:03:34.391Z,34.65
2023-02-19T15:06:06.120Z,40.35
2023-02-19T15:08:38.056Z,34.95
2023-02-19T15:11:12.530Z,33.67
2023-02-19T15:13:41.769Z,32.80
2023-02-19T15:16:09.698Z,32.75
2023-02-19T15:18:37.946Z,30.40
2023-02-19T15:21:24.779Z,30.48
2023-02-19T15:23:55.080Z,50.60
2023-02-19T15:26:29.938Z,68.75
2023-02-19T15:28:59.619Z,77.38
2023-02-19T15:31:27.509Z,55.35
2023-02-19T15:33:56.009Z,38.40
2023-02-19T15:36:30.316Z,40.13
2023-02-19T15:39:01.608Z,32.85
2023-02-19T15:44:22.360Z,40.58
2023-02-19T15:46:50.376Z,48.75
2023-02-19T15:49:21.610Z,49.33
2023-02-19T15:51:55.638Z,46.15
2023-02-19T15:54:27.933Z,50.97
2023-02-19T15:57:00.439Z,36.83
2023-02-19T15:59:32.253Z,34.50
2023-02-19T16:02:01.166Z,34.83
2023-02-19T16:04:29.823Z,37.13
2023-02-19T16:06:59.829Z,41.30
2023-02-19T16:09:31.009Z,35.38
2023-02-19T16:12:01.475Z,31.00
2023-02-19T16:14:33.186Z,37.20
2023-02-19T16:17:12.298Z,33.78
2023-02-19T16:19:46.378Z,29.80
2023-02-19T16:22:17.943Z,30.50
2023-02-19T16:24:48.776Z,29.80
2023-02-19T16:27:29.647Z,36.53
2023-02-19T16:29:58.112Z,31.45
2023-02-19T16:32:26.096Z,32.67
2023-02-19T16:34:54.280Z,37.72
2023-02-19T16:37:36.424Z,34.95
2023-02-19T16:40:49.454Z,34.92
2023-02-19T16:43:30.590Z,33.80
2023-02-19T16:45:59.794Z,40.70
2023-02-19T16:48:28.029Z,36.83
2023-02-19T16:51:00.808Z,32.53
2023-02-19T16:53:28.642Z,38.10
2023-02-19T16:56:00.195Z,42.78
2023-02-19T16:58:29.363Z,43.05
2023-02-19T17:00:57.580Z,41.72
2023-02-19T17:03:26.013Z,60.33
2023-02-19T17:05:53.907Z,54.47
2023-02-19T17:08:32.209Z,47.40
2023-02-19T17:11:02.475Z,48.25
2023-02-19T17:13:32.685Z,57.55
2023-02-19T17:16:00.346Z,74.53
2023-02-19T17:18:28.118Z,31.48
2023-02-19T17:20:58.477Z,34.50
2023-02-19T17:23:26.104Z,32.88
2023-02-19T17:25:53.888Z,37.42
2023-02-19T17:28:21.919Z,46.92
2023-02-19T17:30:50.961Z,38.65
2023-02-19T17:33:18.831Z,36.10
2023-02-19T17:35:46.464Z,33.58
2023-02-19T17:38:14.540Z,34.33
2023-02-19T17:40:42.649Z,33.75
2023-02-19T17:43:10.613Z,32.10
2023-02-19T17:45:38.693Z,41.85
2023-02-19T17:48:11.755Z,40.78
2023-02-19T17:50:39.818Z,30.90
2023-02-19T17:53:08.569Z,36.72
2023-02-19T17:55:36.296Z,30.25
2023-02-19T17:58:06.126Z,34.40
2023-02-19T18:00:33.822Z,28.70
2023-02-19T18:03:02.762Z,32.10
2023-02-19T18:05:31.963Z,32.63
2023-02-19T18:07:59.634Z,34.90
2023-02-19T18:10:27.549Z,37.60
2023-02-19T18:12:55.407Z,37.30
2023-02-19T18:15:24.650Z,38.42
2023-02-19T18:17:53.699Z,35.78
2023-02-19T18:20:25.923Z,34.00
2023-02-19T18:22:56.295Z,30.70
2023-02-19T18:25:24.415Z,34.53
2023-02-19T18:27:52.579Z,42.70
2023-02-19T18:30:22.258Z,41.65
2023-02-19T18:32:51.007Z,59.72
2023-02-19T18:35:19.942Z,79.22
2023-02-19T18:37:51.165Z,81.22
2023-02-19T18:40:21.462Z,118.78
2023-02-19T18:42:49.723Z,138.13
2023-02-19T18:45:18.127Z,118.25
2023-02-19T18:47:46.962Z,100.03
2023-02-19T18:50:14.992Z,83.85
2023-02-19T18:52:42.637Z,82.93
2023-02-19T18:55:11.518Z,89.10
2023-02-19T18:57:40.485Z,70.57
2023-02-19T19:00:09.499Z,72.28
2023-02-19T19:02:48.678Z,60.28
2023-02-19T19:05:18.829Z,51.58
2023-02-19T19:07:46.489Z,54.65
2023-02-19T19:10:17.185Z,58.92
2023-02-19T19:12:46.257Z,67.45
2023-02-19T19:15:17.049Z,70.13
2023-02-19T19:20:14.285Z,70.00
2023-02-19T19:22:43.110Z,66.75
2023-02-19T19:25:10.693Z,63.40
2023-02-19T19:27:40.925Z,58.17
2023-02-19T19:30:10.899Z,50.38
2023-02-19T19:32:38.946Z,45.05
2023-02-19T19:35:07.084Z,48.25
2023-02-19T19:37:35.058Z,48.55
2023-02-19T19:40:02.965Z,54.97
2023-02-19T19:42:30.938Z,58.47
2023-02-19T19:44:58.715Z,47.58
2023-02-19T19:47:28.024Z,47.95
2023-02-19T19:49:55.869Z,52.85
2023-02-19T19:52:23.596Z,59.92
2023-02-19T19:54:51.117Z,59.05
2023-02-19T19:57:18.882Z,60.28
2023-02-19T19:59:49.054Z,54.80
2023-02-19T20:02:17.260Z,51.38
2023-02-19T20:04:46.401Z,46.03
2023-02-19T20:07:14.119Z,46.15
2023-02-19T20:09:47.778Z,48.15
2023-02-19T20:12:16.025Z,43.97
2023-02-19T20:14:44.607Z,48.40
2023-02-19T20:17:14.859Z,47.15
2023-02-19T20:19:45.256Z,47.25
2023-02-19T20:22:14.308Z,44.22
2023-02-19T20:24:41.997Z,41.25
2023-02-19T20:27:11.955Z,43.90
2023-02-19T20:29:39.489Z,43.13
2023-02-19T20:32:07.287Z,45.67
2023-02-19T20:34:35.654Z,51.40
2023-02-19T20:37:03.630Z,52.00
2023-02-19T20:39:34.382Z,52.25
2023-02-19T20:42:01.950Z,54.40
2023-02-19T20:44:31.984Z,51.85
2023-02-19T20:47:00.676Z,48.05
2023-02-19T20:49:30.550Z,54.60
2023-02-19T20:52:01.572Z,52.93
2023-02-19T20:54:30.775Z,51.05
2023-02-19T20:57:02.074Z,52.88
2023-02-19T20:59:31.898Z,59.17
2023-02-19T21:02:00.481Z,57.53
2023-02-19T21:04:28.405Z,65.82
2023-02-19T21:06:56.791Z,59.80
2023-02-19T21:09:25.142Z,63.00
2023-02-19T21:11:53.139Z,60.30
2023-02-19T21:14:24.117Z,77.00
2023-02-19T21:16:51.687Z,74.22
2023-02-19T21:19:19.911Z,62.13
2023-02-19T21:21:47.880Z,69.10
2023-02-19T21:24:15.891Z,85.57
2023-02-19T21:26:44.385Z,98.20
2023-02-19T21:29:16.891Z,88.57
2023-02-19T21:31:48.090Z,120.97
2023-02-19T21:34:18.620Z,156.68
2023-02-19T21:36:46.385Z,78.63
2023-02-19T21:39:16.734Z,79.75
2023-02-19T21:41:44.611Z,51.63
2023-02-19T21:44:13.384Z,57.28
2023-02-19T21:46:41.360Z,51.13
2023-02-19T21:49:11.704Z,45.17
2023-02-19T21:51:40.619Z,53.90
2023-02-19T21:54:13.239Z,49.88
2023-02-19T21:56:40.839Z,51.80
2023-02-19T21:59:08.830Z,50.88
2023-02-19T22:01:38.368Z,35.50
2023-02-19T22:04:10.781Z,40.88
2023-02-19T22:06:38.934Z,35.10
2023-02-19T22:09:13.374Z,37.42
2023-02-19T22:11:42.832Z,51.50
2023-02-19T22:14:10.823Z,37.58
2023-02-19T22:16:39.668Z,46.83
2023-02-19T22:19:07.600Z,49.38
2023-02-19T22:21:41.270Z,41.58
2023-02-19T22:24:15.439Z,35.20
2023-02-19T22:26:43.465Z,38.03
2023-02-19T22:29:13.974Z,39.33
2023-02-19T22:31:42.551Z,47.15
2023-02-19T22:34:10.408Z,46.67
2023-02-19T22:36:39.571Z,36.45
2023-02-19T22:39:27.826Z,34.13
2023-02-19T22:41:55.450Z,25.75
2023-02-19T22:44:23.261Z,24.60
2023-02-19T22:46:55.287Z,26.27
2023-02-19T22:49:23.839Z,23.95
2023-02-19T22:51:58.496Z,18.08
2023-02-19T22:54:26.383Z,23.50
2023-02-19T22:56:54.291Z,25.48
2023-02-19T22:59:22.976Z,23.67
2023-02-19T23:01:51.512Z,19.70
2023-02-19T23:04:21.862Z,24.33
2023-02-19T23:06:49.798Z,21.15
2023-02-19T23:09:21.271Z,30.13
2023-02-19T23:11:48.921Z,25.05
2023-02-19T23:14:20.260Z,20.77
2023-02-19T23:16:48.309Z,26.38
2023-02-19T23:19:19.118Z,20.58
2023-02-19T23:21:47.120Z,17.42
2023-02-19T23:24:15.373Z,16.23
2023-02-19T23:26:46.493Z,18.08
2023-02-19T23:29:16.608Z,13.80
2023-02-19T23:31:44.526Z,16.70
2023-02-19T23:34:12.530Z,17.00
2023-02-19T23:36:41.009Z,24.58
2023-02-19T23:39:09.564Z,28.88
2023-02-19T23:41:37.210Z,25.95
2023-02-19T23:44:06.732Z,26.30
2023-02-19T23:46:34.395Z,37.83
2023-02-19T23:49:02.088Z,36.30
2023-02-19T23:51:29.862Z,29.60
2023-02-19T23:53:57.562Z,32.65
2023-02-19T23:56:25.693Z,28.27
2023-02-19T23:58:53.590Z,37.15
